createdAt,value
2017-11-06T00:01:36.334Z,9.00
2017-11-06T00:04:04.202Z,8.25
2017-11-06T00:06:32.070Z,7.90
2017-11-06T00:08:59.937Z,9.18
2017-11-06T00:11:27.803Z,8.40
2017-11-06T00:13:55.670Z,9.77
2017-11-06T00:16:23.539Z,9.52
2017-11-06T00:18:51.815Z,9.15
2017-11-06T00:21:19.682Z,9.80
2017-11-06T00:23:47.549Z,9.45
2017-11-06T00:26:15.423Z,8.63
2017-11-06T00:28:43.284Z,8.82
2017-11-06T00:31:11.151Z,9.52
2017-11-06T00:33:39.018Z,9.32
2017-11-06T00:36:06.814Z,9.95
2017-11-06T00:38:34.652Z,9.07
2017-11-06T00:41:02.518Z,9.18
2017-11-06T00:43:30.394Z,10.45
2017-11-06T00:45:58.256Z,10.30
2017-11-06T00:48:26.119Z,9.63
2017-11-06T00:50:53.988Z,9.13
2017-11-06T00:53:21.854Z,7.90
2017-11-06T00:55:49.722Z,8.30
2017-11-06T00:58:17.590Z,8.30
2017-11-06T01:00:45.457Z,8.55
2017-11-06T01:03:13.323Z,9.50
2017-11-06T01:05:41.191Z,7.90
2017-11-06T01:08:09.062Z,7.90
2017-11-06T01:10:36.928Z,8.60
2017-11-06T01:13:04.793Z,9.70
2017-11-06T01:15:32.663Z,8.63
2017-11-06T01:18:00.531Z,8.57
2017-11-06T01:20:28.497Z,8.32
2017-11-06T01:22:56.365Z,7.90
2017-11-06T01:25:24.232Z,8.68
2017-11-06T01:27:52.099Z,9.00
2017-11-06T01:30:19.968Z,8.48
2017-11-06T01:32:47.834Z,9.27
2017-11-06T01:35:15.702Z,8.60
2017-11-06T01:37:43.569Z,7.62
2017-11-06T01:40:11.436Z,8.80
2017-11-06T01:42:39.304Z,8.20
2017-11-06T01:45:07.171Z,8.18
2017-11-06T01:47:35.039Z,8.23
2017-11-06T01:50:02.906Z,7.75
2017-11-06T01:52:31.592Z,7.97
2017-11-06T01:54:59.459Z,8.80
2017-11-06T01:57:27.328Z,7.30
2017-11-06T01:59:55.198Z,7.57
2017-11-06T02:02:23.062Z,9.20
2017-11-06T02:04:50.931Z,9.27
2017-11-06T02:07:18.797Z,8.48
2017-11-06T02:09:46.663Z,8.00
2017-11-06T02:12:14.531Z,8.27
2017-11-06T02:14:42.398Z,7.62
2017-11-06T02:17:10.266Z,7.80
2017-11-06T02:19:38.133Z,8.50
2017-11-06T02:22:06.102Z,8.00
2017-11-06T02:24:33.969Z,9.20
2017-11-06T02:27:01.837Z,8.85
2017-11-06T02:29:29.705Z,8.70
2017-11-06T02:31:57.676Z,8.32
2017-11-06T02:34:25.542Z,7.80
2017-11-06T02:36:53.408Z,8.65
2017-11-06T02:39:21.276Z,8.48
2017-11-06T02:41:49.145Z,8.52
2017-11-06T02:44:17.011Z,8.73
2017-11-06T02:46:44.892Z,9.20
2017-11-06T02:49:12.766Z,8.93
2017-11-06T02:51:40.614Z,9.38
2017-11-06T02:54:08.488Z,9.30
2017-11-06T02:56:36.349Z,9.25
2017-11-06T02:59:04.225Z,9.25
2017-11-06T03:01:32.086Z,8.40
2017-11-06T03:03:59.951Z,8.23
2017-11-06T03:06:27.819Z,7.47
2017-11-06T03:08:55.684Z,7.65
2017-11-06T03:11:23.553Z,8.27
2017-11-06T03:13:51.419Z,9.07
2017-11-06T03:16:19.287Z,9.38
2017-11-06T03:18:47.153Z,9.77
2017-11-06T03:21:15.020Z,9.25
2017-11-06T03:23:42.889Z,8.82
2017-11-06T03:26:10.755Z,10.57
2017-11-06T03:28:38.623Z,8.73
2017-11-06T03:31:06.491Z,8.15
2017-11-06T03:33:34.361Z,9.00
2017-11-06T03:36:02.225Z,8.45
2017-11-06T03:38:30.105Z,8.52
2017-11-06T03:40:57.960Z,8.65
2017-11-06T03:43:25.832Z,9.25
2017-11-06T03:45:53.694Z,8.55
2017-11-06T03:48:21.561Z,8.38
2017-11-06T03:50:49.428Z,8.50
2017-11-06T03:53:17.295Z,8.05
2017-11-06T03:55:45.162Z,8.45
2017-11-06T03:58:13.031Z,8.70
2017-11-06T04:00:40.898Z,8.82
2017-11-06T04:03:08.764Z,9.93
2017-11-06T04:05:36.632Z,9.07
2017-11-06T04:08:04.500Z,9.45
2017-11-06T04:10:32.368Z,8.18
2017-11-06T04:13:00.234Z,9.00
2017-11-06T04:15:28.101Z,8.80
2017-11-06T04:17:55.970Z,8.02
2017-11-06T04:20:23.835Z,8.68
2017-11-06T04:22:51.704Z,8.20
2017-11-06T04:25:19.571Z,8.75
2017-11-06T04:27:47.438Z,7.85
2017-11-06T04:30:15.351Z,7.57
2017-11-06T04:32:43.992Z,7.40
2017-11-06T04:35:11.961Z,7.78
2017-11-06T04:37:39.829Z,7.15
2017-11-06T04:40:07.696Z,7.70
2017-11-06T04:42:35.564Z,7.72
2017-11-06T04:45:03.430Z,9.40
2017-11-06T04:47:31.297Z,9.55
2017-11-06T04:49:59.268Z,9.68
2017-11-06T04:52:27.134Z,10.40
2017-11-06T04:54:54.933Z,11.55
2017-11-06T04:57:23.586Z,10.88
2017-11-06T04:59:51.455Z,10.50
2017-11-06T05:02:19.321Z,10.00
2017-11-06T05:04:47.189Z,10.98
2017-11-06T05:07:15.055Z,10.20
2017-11-06T05:09:42.923Z,10.90
2017-11-06T05:12:10.793Z,10.77
2017-11-06T05:17:12.464Z,11.30
2017-11-06T05:19:40.741Z,12.20
2017-11-06T05:22:08.608Z,12.60
2017-11-06T05:24:36.475Z,11.93
2017-11-06T05:27:04.343Z,12.60
2017-11-06T05:29:32.210Z,16.42
2017-11-06T05:31:59.976Z,12.98
2017-11-06T05:34:27.851Z,15.38
2017-11-06T05:36:55.710Z,13.90
2017-11-06T05:39:23.577Z,12.32
2017-11-06T05:41:51.445Z,14.32
2017-11-06T05:44:19.203Z,13.18
2017-11-06T05:46:46.930Z,14.10
2017-11-06T05:49:14.654Z,10.95
2017-11-06T05:51:42.503Z,11.25
2017-11-06T05:54:10.371Z,11.65
2017-11-06T05:56:38.242Z,11.52
2017-11-06T05:59:06.106Z,11.07
2017-11-06T06:01:33.975Z,10.40
2017-11-06T06:04:01.840Z,10.98
2017-11-06T06:06:29.635Z,11.52
2017-11-06T06:08:58.296Z,11.35
2017-11-06T06:11:26.160Z,11.50
2017-11-06T06:13:54.026Z,11.05
2017-11-06T06:16:21.899Z,14.05
2017-11-06T06:18:49.764Z,12.18
2017-11-06T06:21:17.630Z,12.35
2017-11-06T06:23:45.709Z,15.68
2017-11-06T06:26:14.388Z,13.40
2017-11-06T06:28:42.257Z,15.00
2017-11-06T06:31:10.159Z,13.45
2017-11-06T06:33:38.193Z,13.93
2017-11-06T06:36:06.073Z,11.10
2017-11-06T06:38:33.928Z,12.60
2017-11-06T06:41:01.662Z,12.60
2017-11-06T06:43:29.562Z,10.70
2017-11-06T06:45:57.428Z,12.18
2017-11-06T06:48:25.294Z,12.00
2017-11-06T06:50:53.162Z,12.10
2017-11-06T06:53:21.031Z,12.73
2017-11-06T06:55:48.898Z,12.77
2017-11-06T06:58:16.766Z,12.18
2017-11-06T07:00:44.631Z,12.25
2017-11-06T07:03:12.498Z,12.05
2017-11-06T07:05:40.372Z,10.57
2017-11-06T07:08:08.234Z,9.52
2017-11-06T07:10:36.100Z,11.40
2017-11-06T07:13:03.967Z,11.85
2017-11-06T07:15:31.835Z,11.60
2017-11-06T07:17:59.702Z,11.90
2017-11-06T07:20:27.577Z,11.30
2017-11-06T07:22:55.437Z,10.95
2017-11-06T07:25:23.303Z,10.80
2017-11-06T07:27:51.172Z,10.10
2017-11-06T07:30:19.039Z,10.05
2017-11-06T07:32:46.907Z,9.45
2017-11-06T07:35:14.774Z,9.65
2017-11-06T07:37:42.641Z,10.63
2017-11-06T07:40:10.510Z,8.65
2017-11-06T07:42:38.378Z,9.13
2017-11-06T07:45:06.243Z,9.10
2017-11-06T07:47:34.110Z,8.38
2017-11-06T07:50:01.978Z,9.15
2017-11-06T07:52:29.845Z,8.23
2017-11-06T07:54:57.712Z,9.57
2017-11-06T07:57:25.582Z,10.30
2017-11-06T07:59:53.447Z,10.55
2017-11-06T08:02:21.314Z,11.27
2017-11-06T08:04:49.181Z,12.05
2017-11-06T08:07:17.050Z,11.90
2017-11-06T08:09:44.917Z,11.02
2017-11-06T08:12:12.783Z,13.75
2017-11-06T08:14:40.653Z,13.57
2017-11-06T08:17:08.520Z,15.13
2017-11-06T08:19:36.489Z,11.73
2017-11-06T08:22:04.378Z,12.05
2017-11-06T08:24:32.939Z,10.45
2017-11-06T08:27:00.670Z,10.10
2017-11-06T08:29:28.471Z,12.32
2017-11-06T08:31:56.340Z,11.05
2017-11-06T08:34:24.207Z,11.43
2017-11-06T08:36:52.070Z,11.12
2017-11-06T08:39:19.940Z,12.20
2017-11-06T08:41:47.807Z,11.20
2017-11-06T08:44:15.673Z,11.50
2017-11-06T08:46:43.541Z,11.95
2017-11-06T08:49:11.407Z,10.50
2017-11-06T08:51:39.277Z,11.10
2017-11-06T08:54:07.008Z,9.43
2017-11-06T08:56:34.907Z,10.82
2017-11-06T08:59:02.776Z,10.00
2017-11-06T09:01:30.641Z,9.93
2017-11-06T09:03:58.509Z,9.52
2017-11-06T09:06:26.383Z,10.30
2017-11-06T09:08:54.244Z,8.80
2017-11-06T09:11:22.111Z,9.00
2017-11-06T09:13:49.978Z,8.95
2017-11-06T09:16:17.845Z,8.80
2017-11-06T09:18:45.713Z,9.68
2017-11-06T09:21:13.581Z,8.85
2017-11-06T09:23:41.455Z,9.75
2017-11-06T09:26:09.324Z,9.23
2017-11-06T09:28:37.186Z,8.90
2017-11-06T09:31:05.052Z,9.55
2017-11-06T09:33:32.917Z,9.23
2017-11-06T09:36:00.784Z,9.32
2017-11-06T09:38:28.656Z,9.10
2017-11-06T09:40:56.521Z,9.55
2017-11-06T09:43:24.390Z,8.70
2017-11-06T09:45:52.767Z,8.70
2017-11-06T09:48:20.633Z,8.80
2017-11-06T09:50:48.500Z,8.43
2017-11-06T09:53:16.367Z,8.30
2017-11-06T09:55:44.235Z,8.82
2017-11-06T09:58:12.107Z,8.65
2017-11-06T10:00:39.969Z,8.52
2017-11-06T10:03:07.837Z,8.77
2017-11-06T10:05:36.318Z,8.95
2017-11-06T10:08:04.185Z,8.88
2017-11-06T10:10:32.053Z,8.30
2017-11-06T10:12:59.923Z,8.80
2017-11-06T10:15:27.787Z,9.45
2017-11-06T10:17:55.553Z,8.10
2017-11-06T10:20:23.419Z,8.05
2017-11-06T10:22:51.291Z,6.90
2017-11-06T10:25:19.154Z,8.10
2017-11-06T10:27:47.022Z,9.13
2017-11-06T10:30:14.889Z,7.87
2017-11-06T10:32:42.756Z,8.75
2017-11-06T10:35:10.624Z,7.90
2017-11-06T10:37:38.399Z,7.40
2017-11-06T10:40:06.163Z,8.32
2017-11-06T10:42:33.878Z,8.25
2017-11-06T10:45:01.653Z,8.55
2017-11-06T10:47:29.382Z,7.72
2017-11-06T10:49:57.881Z,6.35
2017-11-06T10:52:25.647Z,6.10
2017-11-06T10:54:53.563Z,6.45
2017-11-06T10:57:21.429Z,7.60
2017-11-06T10:59:49.297Z,6.93
2017-11-06T11:02:17.164Z,7.07
2017-11-06T11:04:44.933Z,6.37
2017-11-06T11:07:12.692Z,6.68
2017-11-06T11:09:41.381Z,6.32
2017-11-06T11:12:09.247Z,6.43
2017-11-06T11:14:37.115Z,7.00
2017-11-06T11:17:04.910Z,6.47
2017-11-06T11:19:32.748Z,7.70
2017-11-06T11:22:00.486Z,6.22
2017-11-06T11:24:28.244Z,6.65
2017-11-06T11:26:55.989Z,7.28
2017-11-06T11:29:24.625Z,6.82
2017-11-06T11:31:52.493Z,6.03
2017-11-06T11:34:20.234Z,6.32
2017-11-06T11:36:48.125Z,6.70
2017-11-06T11:39:15.994Z,7.55
2017-11-06T11:41:43.859Z,8.82
2017-11-06T11:44:12.445Z,7.30
2017-11-06T11:46:40.311Z,7.25
2017-11-06T11:49:08.178Z,8.82
2017-11-06T11:51:36.046Z,7.43
2017-11-06T11:54:03.914Z,7.68
2017-11-06T11:56:31.634Z,8.35
2017-11-06T11:58:59.357Z,8.75
2017-11-06T12:01:27.209Z,8.82
2017-11-06T12:03:54.973Z,10.05
2017-11-06T12:06:22.771Z,10.18
2017-11-06T12:08:51.259Z,10.40
2017-11-06T12:11:19.837Z,10.18
2017-11-06T12:13:48.490Z,10.25
2017-11-06T12:16:16.358Z,9.88
2017-11-06T12:18:44.225Z,8.93
2017-11-06T12:21:12.093Z,9.35
2017-11-06T12:23:39.960Z,10.43
2017-11-06T12:26:07.681Z,9.10
2017-11-06T12:28:35.433Z,8.82
2017-11-06T12:31:03.929Z,9.90
2017-11-06T12:33:31.650Z,9.18
2017-11-06T12:35:59.509Z,9.40
2017-11-06T12:38:27.368Z,9.68
2017-11-06T12:40:55.236Z,8.70
2017-11-06T12:43:22.950Z,9.63
2017-11-06T12:45:50.778Z,10.45
2017-11-06T12:48:18.494Z,9.55
2017-11-06T12:50:46.224Z,10.05
2017-11-06T12:53:14.721Z,9.00
2017-11-06T12:55:43.225Z,9.27
2017-11-06T12:58:10.946Z,9.95
2017-11-06T13:00:38.793Z,9.52
2017-11-06T13:03:06.656Z,8.75
2017-11-06T13:05:34.524Z,9.95
2017-11-06T13:08:02.390Z,9.20
2017-11-06T13:10:30.258Z,9.05
2017-11-06T13:12:58.126Z,8.27
2017-11-06T13:15:25.992Z,9.23
2017-11-06T13:17:53.859Z,9.20
2017-11-06T13:20:21.728Z,9.65
2017-11-06T13:22:49.598Z,10.00
2017-11-06T13:25:17.461Z,9.63
2017-11-06T13:27:45.174Z,8.80
2017-11-06T13:30:13.657Z,8.25
2017-11-06T13:32:42.293Z,7.78
2017-11-06T13:35:10.162Z,8.25
2017-11-06T13:37:38.027Z,8.60
2017-11-06T13:40:05.811Z,8.68
2017-11-06T13:42:33.665Z,9.23
2017-11-06T13:45:01.402Z,8.40
2017-11-06T13:47:29.118Z,8.50
2017-11-06T13:49:56.842Z,8.35
2017-11-06T13:52:24.578Z,7.97
2017-11-06T13:54:52.382Z,8.75
2017-11-06T13:57:20.249Z,7.00
2017-11-06T13:59:48.116Z,7.60
2017-11-06T14:02:15.982Z,8.30
2017-11-06T14:04:43.851Z,8.02
2017-11-06T14:07:11.718Z,8.90
2017-11-06T14:09:39.687Z,7.75
2017-11-06T14:12:07.556Z,7.22
2017-11-06T14:14:35.421Z,8.65
2017-11-06T14:17:03.291Z,8.23
2017-11-06T14:19:31.014Z,7.72
2017-11-06T14:21:58.820Z,7.97
2017-11-06T14:24:27.506Z,7.60
2017-11-06T14:26:55.373Z,7.20
2017-11-06T14:29:23.241Z,7.35
2017-11-06T14:31:51.108Z,5.93
2017-11-06T14:34:18.831Z,5.47
2017-11-06T14:36:46.640Z,6.40
2017-11-06T14:39:14.505Z,6.97
2017-11-06T14:41:42.219Z,7.07
2017-11-06T14:44:09.932Z,6.80
2017-11-06T14:46:37.807Z,6.10
2017-11-06T14:49:05.668Z,6.62
2017-11-06T14:51:33.534Z,6.70
2017-11-06T14:54:01.402Z,6.53
2017-11-06T14:56:29.275Z,6.37
2017-11-06T14:58:57.137Z,7.87
2017-11-06T15:01:25.007Z,7.12
2017-11-06T15:03:52.873Z,6.65
2017-11-06T15:06:20.740Z,6.20
2017-11-06T15:08:48.608Z,6.43
2017-11-06T15:11:16.474Z,6.57
2017-11-06T15:13:44.341Z,6.62
2017-11-06T15:16:12.209Z,6.35
2017-11-06T15:18:40.075Z,5.85
2017-11-06T15:21:07.942Z,7.37
2017-11-06T15:23:35.838Z,7.20
2017-11-06T15:26:03.677Z,7.80
2017-11-06T15:28:31.544Z,7.43
2017-11-06T15:30:59.416Z,7.80
2017-11-06T15:33:27.278Z,7.60
2017-11-06T15:35:55.146Z,7.20
2017-11-06T15:38:23.435Z,5.90
2017-11-06T15:40:51.291Z,7.43
2017-11-06T15:43:19.157Z,7.95
2017-11-06T15:45:47.026Z,6.43
2017-11-06T15:48:14.892Z,6.78
2017-11-06T15:50:42.760Z,6.72
2017-11-06T15:53:10.627Z,6.22
2017-11-06T15:55:38.494Z,5.80
2017-11-06T15:58:06.362Z,6.28
2017-11-06T16:00:34.231Z,6.50
2017-11-06T16:03:02.095Z,6.78
2017-11-06T16:05:29.964Z,6.60
2017-11-06T16:07:57.838Z,5.28
2017-11-06T16:10:32.648Z,5.32
2017-11-06T16:13:04.550Z,4.68
2017-11-06T16:15:37.265Z,4.78
2017-11-06T16:28:55.331Z,4.60
2017-11-06T16:31:23.500Z,4.80
2017-11-06T16:33:52.386Z,4.70
2017-11-06T16:36:20.455Z,5.43
2017-11-06T16:38:48.426Z,4.82
2017-11-06T16:41:17.214Z,5.40
2017-11-06T16:43:45.082Z,4.87
2017-11-06T16:46:12.950Z,5.68
2017-11-06T16:48:40.816Z,4.85
2017-11-06T16:51:08.684Z,5.20
2017-11-06T16:53:36.552Z,4.75
2017-11-06T16:56:04.829Z,4.93
2017-11-06T16:58:32.539Z,5.80
2017-11-06T17:01:01.058Z,5.20
2017-11-06T17:03:29.149Z,4.80
2017-11-06T17:05:57.935Z,4.25
2017-11-06T17:08:25.905Z,4.57
2017-11-06T17:10:53.850Z,4.78
2017-11-06T17:13:21.550Z,6.18
2017-11-06T17:15:49.405Z,3.97
2017-11-06T17:18:17.273Z,5.00
2017-11-06T17:20:46.063Z,5.07
2017-11-06T17:23:13.928Z,4.35
2017-11-06T17:25:42.102Z,4.65
2017-11-06T17:28:09.971Z,4.75
2017-11-06T17:30:37.837Z,4.40
2017-11-06T17:33:05.704Z,4.72
2017-11-06T17:35:33.574Z,4.25
2017-11-06T17:38:01.441Z,4.40
2017-11-06T17:40:29.264Z,4.37
2017-11-06T17:42:57.174Z,3.78
2017-11-06T17:45:25.043Z,4.40
2017-11-06T17:47:52.909Z,4.57
2017-11-06T17:50:20.776Z,4.30
2017-11-06T17:52:48.746Z,4.70
2017-11-06T17:55:16.612Z,4.50
2017-11-06T17:57:44.480Z,4.35
2017-11-06T18:00:12.351Z,4.55
2017-11-06T18:02:40.215Z,4.57
2017-11-06T18:05:08.084Z,4.62
2017-11-06T18:07:35.949Z,4.35
2017-11-06T18:10:03.817Z,4.68
2017-11-06T18:12:31.685Z,5.32
2017-11-06T18:14:59.562Z,4.00
2017-11-06T18:17:27.421Z,4.60
2017-11-06T18:19:55.288Z,4.05
2017-11-06T18:22:23.153Z,5.12
2017-11-06T18:24:51.020Z,4.60
2017-11-06T18:27:18.887Z,4.62
2017-11-06T18:29:46.755Z,4.90
2017-11-06T18:32:14.622Z,5.50
2017-11-06T18:34:42.489Z,4.55
2017-11-06T18:37:10.358Z,4.95
2017-11-06T18:39:38.225Z,4.75
2017-11-06T18:42:06.096Z,5.22
2017-11-06T18:44:33.961Z,4.75
2017-11-06T18:47:01.827Z,4.62
2017-11-06T18:49:29.696Z,5.80
2017-11-06T18:51:57.565Z,5.37
2017-11-06T18:54:25.429Z,5.45
2017-11-06T18:56:54.012Z,4.68
2017-11-06T18:59:21.878Z,4.37
2017-11-06T19:01:49.748Z,4.85
2017-11-06T19:04:17.615Z,4.75
2017-11-06T19:06:45.481Z,4.45
2017-11-06T19:09:16.102Z,3.75
2017-11-06T19:11:47.019Z,3.80
2017-11-06T19:14:17.510Z,4.40
2017-11-06T19:16:46.270Z,5.03
2017-11-06T19:19:14.136Z,4.47
2017-11-06T19:21:42.007Z,5.00
2017-11-06T19:24:09.871Z,3.87
2017-11-06T19:26:37.743Z,4.53
2017-11-06T19:29:05.615Z,4.40
2017-11-06T19:31:33.488Z,3.67
2017-11-06T19:34:01.343Z,4.25
2017-11-06T19:36:29.151Z,3.97
2017-11-06T19:38:57.796Z,3.60
2017-11-06T19:41:25.664Z,4.07
2017-11-06T19:43:53.426Z,4.55
2017-11-06T19:46:21.295Z,3.58
2017-11-06T19:48:49.161Z,4.55
2017-11-06T19:51:17.027Z,4.00
2017-11-06T19:53:44.895Z,3.90
2017-11-06T19:56:12.762Z,4.12
2017-11-06T19:58:40.629Z,4.62
2017-11-06T20:01:08.496Z,4.50
2017-11-06T20:03:36.363Z,4.70
2017-11-06T20:06:04.126Z,4.12
2017-11-06T20:08:31.996Z,4.40
2017-11-06T20:10:59.863Z,4.05
2017-11-06T20:13:27.730Z,4.87
2017-11-06T20:15:55.598Z,4.60
2017-11-06T20:18:23.468Z,4.30
2017-11-06T20:20:51.353Z,4.03
2017-11-06T20:23:20.019Z,4.05
2017-11-06T20:25:47.885Z,4.25
2017-11-06T20:28:15.757Z,3.83
2017-11-06T20:30:43.620Z,4.15
2017-11-06T20:33:11.488Z,4.10
2017-11-06T20:35:39.457Z,4.18
2017-11-06T20:38:07.324Z,4.07
2017-11-06T20:40:35.295Z,4.43
2017-11-06T20:43:03.161Z,4.65
2017-11-06T20:45:31.029Z,4.22
2017-11-06T20:47:58.898Z,4.07
2017-11-06T20:50:26.773Z,4.50
2017-11-06T20:52:54.572Z,4.50
2017-11-06T20:55:23.225Z,4.62
2017-11-06T20:57:51.082Z,4.10
2017-11-06T21:00:18.951Z,4.30
2017-11-06T21:02:46.817Z,3.75
2017-11-06T21:05:14.684Z,4.10
2017-11-06T21:07:42.552Z,4.10
2017-11-06T21:10:10.418Z,3.62
2017-11-06T21:12:38.285Z,4.05
2017-11-06T21:15:06.160Z,4.55
2017-11-06T21:17:34.846Z,6.80
2017-11-06T21:20:02.712Z,15.32
2017-11-06T21:22:30.574Z,14.70
2017-11-06T21:24:58.441Z,12.95
2017-11-06T21:27:26.314Z,10.15
2017-11-06T21:29:59.707Z,7.55
2017-11-06T21:32:27.472Z,6.15
2017-11-06T21:34:55.339Z,5.12
2017-11-06T21:37:23.307Z,4.50
2017-11-06T21:39:51.184Z,4.70
2017-11-06T21:42:19.247Z,4.30
2017-11-06T21:44:47.054Z,4.85
2017-11-06T21:47:14.982Z,4.57
2017-11-06T21:49:42.849Z,4.10
2017-11-06T21:52:10.716Z,5.00
2017-11-06T21:54:38.583Z,5.20
2017-11-06T21:57:06.451Z,4.55
2017-11-06T21:59:34.318Z,5.00
2017-11-06T22:02:02.186Z,4.43
2017-11-06T22:04:30.159Z,5.15
2017-11-06T22:06:58.022Z,4.28
2017-11-06T22:09:25.891Z,5.25
2017-11-06T22:11:53.758Z,4.72
2017-11-06T22:14:21.625Z,4.85
2017-11-06T22:16:49.491Z,3.85
2017-11-06T22:19:17.359Z,4.53
2017-11-06T22:21:45.226Z,4.90
2017-11-06T22:24:13.095Z,5.57
2017-11-06T22:26:40.961Z,4.62
2017-11-06T22:29:08.829Z,4.80
2017-11-06T22:31:36.624Z,5.28
2017-11-06T22:34:05.179Z,5.62
2017-11-06T22:36:33.045Z,5.22
2017-11-06T22:39:00.938Z,4.87
2017-11-06T22:41:29.600Z,6.12
2017-11-06T22:43:57.466Z,6.03
2017-11-06T22:46:25.435Z,6.40
2017-11-06T22:48:53.302Z,6.20
2017-11-06T22:51:21.178Z,7.35
2017-11-06T22:53:49.044Z,7.87
2017-11-06T22:56:16.908Z,7.60
2017-11-06T22:58:44.774Z,7.45
2017-11-06T23:01:12.641Z,8.43
2017-11-06T23:03:40.511Z,6.95
2017-11-06T23:06:08.480Z,7.35
2017-11-06T23:08:36.366Z,7.60
2017-11-06T23:11:04.213Z,7.47
2017-11-06T23:13:32.079Z,7.65
2017-11-06T23:15:59.946Z,7.05
2017-11-06T23:18:28.770Z,7.28
2017-11-06T23:20:57.319Z,7.50
2017-11-06T23:23:25.187Z,7.07
2017-11-06T23:25:53.054Z,6.75
2017-11-06T23:28:20.963Z,7.45
2017-11-06T23:30:52.372Z,7.05
2017-11-06T23:33:25.330Z,6.60
2017-11-06T23:35:53.228Z,7.22
2017-11-06T23:38:21.197Z,6.62
2017-11-06T23:40:49.063Z,6.15
2017-11-06T23:43:16.932Z,6.57
2017-11-06T23:45:44.798Z,6.30
2017-11-06T23:48:12.666Z,6.37
2017-11-06T23:50:40.533Z,6.07
2017-11-06T23:53:08.401Z,5.75
2017-11-06T23:55:36.268Z,6.93
2017-11-06T23:58:04.136Z,6.37
